sensor_id;sensor_type;location;lat;lon;timestamp;P1;durP1;ratioP1;P2;durP2;ratioP2
10769;SDS011;5437;50.852;4.438;2023-07-20T00:01:58;3.53;;;2.30;;
10769;SDS011;5437;50.852;4.438;2023-07-20T00:04:24;4.60;;;2.67;;
10769;SDS011;5437;50.852;4.438;2023-07-20T00:06:50;4.32;;;2.65;;
10769;SDS011;5437;50.852;4.438;2023-07-20T00:09:16;4.65;;;2.70;;
10769;SDS011;5437;50.852;4.438;2023-07-20T00:11:47;3.92;;;2.45;;
10769;SDS011;5437;50.852;4.438;2023-07-20T00:14:14;4.78;;;2.83;;
10769;SDS011;5437;50.852;4.438;2023-07-20T00:16:40;4.10;;;2.60;;
10769;SDS011;5437;50.852;4.438;2023-07-20T00:19:06;2.83;;;2.33;;
10769;SDS011;5437;50.852;4.438;2023-07-20T00:21:33;7.82;;;2.80;;
10769;SDS011;5437;50.852;4.438;2023-07-20T00:23:59;3.83;;;2.40;;
10769;SDS011;5437;50.852;4.438;2023-07-20T00:26:25;4.47;;;2.63;;
10769;SDS011;5437;50.852;4.438;2023-07-20T00:28:51;5.68;;;2.80;;
10769;SDS011;5437;50.852;4.438;2023-07-20T00:31:17;4.72;;;2.70;;
10769;SDS011;5437;50.852;4.438;2023-07-20T00:33:43;4.25;;;2.70;;
10769;SDS011;5437;50.852;4.438;2023-07-20T00:36:10;6.57;;;3.17;;
10769;SDS011;5437;50.852;4.438;2023-07-20T00:38:36;9.20;;;3.45;;
10769;SDS011;5437;50.852;4.438;2023-07-20T00:41:03;6.30;;;3.30;;
10769;SDS011;5437;50.852;4.438;2023-07-20T00:43:29;4.72;;;3.10;;
10769;SDS011;5437;50.852;4.438;2023-07-20T00:45:55;6.80;;;2.97;;
10769;SDS011;5437;50.852;4.438;2023-07-20T00:48:21;3.95;;;2.97;;
10769;SDS011;5437;50.852;4.438;2023-07-20T00:50:48;4.10;;;2.88;;
10769;SDS011;5437;50.852;4.438;2023-07-20T00:53:14;5.68;;;2.80;;
10769;SDS011;5437;50.852;4.438;2023-07-20T00:55:40;6.22;;;3.00;;
10769;SDS011;5437;50.852;4.438;2023-07-20T00:58:06;5.85;;;3.10;;
10769;SDS011;5437;50.852;4.438;2023-07-20T01:00:32;4.82;;;2.75;;
10769;SDS011;5437;50.852;4.438;2023-07-20T01:02:58;7.90;;;3.20;;
10769;SDS011;5437;50.852;4.438;2023-07-20T01:05:26;5.57;;;3.35;;
10769;SDS011;5437;50.852;4.438;2023-07-20T01:08:13;4.60;;;3.03;;
10769;SDS011;5437;50.852;4.438;2023-07-20T01:10:46;6.65;;;3.33;;
10769;SDS011;5437;50.852;4.438;2023-07-20T01:13:15;6.10;;;3.25;;
10769;SDS011;5437;50.852;4.438;2023-07-20T01:15:42;5.07;;;3.17;;
10769;SDS011;5437;50.852;4.438;2023-07-20T01:18:15;7.15;;;3.30;;
10769;SDS011;5437;50.852;4.438;2023-07-20T01:20:41;5.38;;;3.33;;
10769;SDS011;5437;50.852;4.438;2023-07-20T01:26:02;5.90;;;3.30;;
10769;SDS011;5437;50.852;4.438;2023-07-20T01:28:39;4.90;;;3.50;;
10769;SDS011;5437;50.852;4.438;2023-07-20T01:33:36;4.75;;;3.28;;
10769;SDS011;5437;50.852;4.438;2023-07-20T01:36:04;6.80;;;3.75;;
10769;SDS011;5437;50.852;4.438;2023-07-20T01:38:31;9.07;;;3.55;;
10769;SDS011;5437;50.852;4.438;2023-07-20T01:40:57;6.65;;;4.03;;
10769;SDS011;5437;50.852;4.438;2023-07-20T01:43:23;7.22;;;3.80;;
10769;SDS011;5437;50.852;4.438;2023-07-20T01:45:50;7.15;;;4.55;;
10769;SDS011;5437;50.852;4.438;2023-07-20T01:48:16;6.05;;;4.20;;
10769;SDS011;5437;50.852;4.438;2023-07-20T01:50:42;8.93;;;4.30;;
10769;SDS011;5437;50.852;4.438;2023-07-20T01:53:08;6.05;;;4.32;;
10769;SDS011;5437;50.852;4.438;2023-07-20T01:55:34;8.10;;;4.72;;
10769;SDS011;5437;50.852;4.438;2023-07-20T01:58:00;7.40;;;4.40;;
10769;SDS011;5437;50.852;4.438;2023-07-20T02:00:27;7.25;;;4.43;;
10769;SDS011;5437;50.852;4.438;2023-07-20T02:02:53;7.43;;;4.75;;
10769;SDS011;5437;50.852;4.438;2023-07-20T02:05:21;7.60;;;5.05;;
10769;SDS011;5437;50.852;4.438;2023-07-20T02:07:47;8.60;;;4.45;;
10769;SDS011;5437;50.852;4.438;2023-07-20T02:10:13;9.52;;;5.18;;
10769;SDS011;5437;50.852;4.438;2023-07-20T02:12:39;7.40;;;4.93;;
10769;SDS011;5437;50.852;4.438;2023-07-20T02:15:06;7.90;;;5.13;;
10769;SDS011;5437;50.852;4.438;2023-07-20T02:17:34;8.57;;;5.35;;
10769;SDS011;5437;50.852;4.438;2023-07-20T02:20:00;9.85;;;5.70;;
10769;SDS011;5437;50.852;4.438;2023-07-20T02:22:26;8.65;;;5.50;;
10769;SDS011;5437;50.852;4.438;2023-07-20T02:24:52;8.55;;;5.47;;
10769;SDS011;5437;50.852;4.438;2023-07-20T02:27:18;9.50;;;5.85;;
10769;SDS011;5437;50.852;4.438;2023-07-20T02:29:44;11.18;;;5.25;;
10769;SDS011;5437;50.852;4.438;2023-07-20T02:32:10;9.07;;;5.72;;
10769;SDS011;5437;50.852;4.438;2023-07-20T02:34:37;10.20;;;5.75;;
10769;SDS011;5437;50.852;4.438;2023-07-20T02:37:03;9.63;;;5.70;;
10769;SDS011;5437;50.852;4.438;2023-07-20T02:39:31;8.25;;;5.28;;
10769;SDS011;5437;50.852;4.438;2023-07-20T02:41:57;9.18;;;5.78;;
10769;SDS011;5437;50.852;4.438;2023-07-20T02:44:23;10.30;;;5.50;;
10769;SDS011;5437;50.852;4.438;2023-07-20T02:46:51;9.55;;;5.80;;
10769;SDS011;5437;50.852;4.438;2023-07-20T02:49:17;7.95;;;5.63;;
10769;SDS011;5437;50.852;4.438;2023-07-20T02:51:43;7.97;;;5.43;;
10769;SDS011;5437;50.852;4.438;2023-07-20T02:54:10;10.07;;;5.80;;
10769;SDS011;5437;50.852;4.438;2023-07-20T02:56:36;8.80;;;5.55;;
10769;SDS011;5437;50.852;4.438;2023-07-20T02:59:02;8.48;;;5.28;;
10769;SDS011;5437;50.852;4.438;2023-07-20T03:01:28;8.38;;;5.80;;
10769;SDS011;5437;50.852;4.438;2023-07-20T03:03:54;6.75;;;5.63;;
10769;SDS011;5437;50.852;4.438;2023-07-20T03:06:21;7.72;;;5.25;;
10769;SDS011;5437;50.852;4.438;2023-07-20T03:08:47;8.70;;;5.85;;
10769;SDS011;5437;50.852;4.438;2023-07-20T03:11:16;10.48;;;6.00;;
10769;SDS011;5437;50.852;4.438;2023-07-20T03:13:43;9.43;;;5.90;;
10769;SDS011;5437;50.852;4.438;2023-07-20T03:16:09;10.00;;;5.65;;
10769;SDS011;5437;50.852;4.438;2023-07-20T03:18:39;9.68;;;5.95;;
10769;SDS011;5437;50.852;4.438;2023-07-20T03:21:06;11.35;;;6.40;;
10769;SDS011;5437;50.852;4.438;2023-07-20T03:23:32;10.82;;;5.78;;
10769;SDS011;5437;50.852;4.438;2023-07-20T03:25:58;10.55;;;6.22;;
10769;SDS011;5437;50.852;4.438;2023-07-20T03:28:24;9.55;;;6.40;;
10769;SDS011;5437;50.852;4.438;2023-07-20T03:30:54;11.35;;;6.90;;
10769;SDS011;5437;50.852;4.438;2023-07-20T03:33:25;10.13;;;6.78;;
10769;SDS011;5437;50.852;4.438;2023-07-20T03:35:51;8.52;;;6.63;;
10769;SDS011;5437;50.852;4.438;2023-07-20T03:38:17;10.00;;;6.85;;
10769;SDS011;5437;50.852;4.438;2023-07-20T03:40:53;10.25;;;6.93;;
10769;SDS011;5437;50.852;4.438;2023-07-20T03:43:20;8.80;;;6.90;;
10769;SDS011;5437;50.852;4.438;2023-07-20T03:45:46;9.52;;;7.25;;
10769;SDS011;5437;50.852;4.438;2023-07-20T03:48:13;8.43;;;7.35;;
10769;SDS011;5437;50.852;4.438;2023-07-20T03:50:39;9.93;;;7.68;;
10769;SDS011;5437;50.852;4.438;2023-07-20T03:53:05;10.18;;;7.53;;
10769;SDS011;5437;50.852;4.438;2023-07-20T03:55:31;12.10;;;7.13;;
10769;SDS011;5437;50.852;4.438;2023-07-20T03:57:57;9.73;;;7.40;;
10769;SDS011;5437;50.852;4.438;2023-07-20T04:00:23;11.60;;;7.18;;
10769;SDS011;5437;50.852;4.438;2023-07-20T04:02:50;11.50;;;7.45;;
10769;SDS011;5437;50.852;4.438;2023-07-20T04:05:16;12.18;;;8.18;;
10769;SDS011;5437;50.852;4.438;2023-07-20T04:07:42;10.20;;;7.80;;
10769;SDS011;5437;50.852;4.438;2023-07-20T04:10:08;10.43;;;7.70;;
10769;SDS011;5437;50.852;4.438;2023-07-20T04:12:35;11.23;;;7.93;;
10769;SDS011;5437;50.852;4.438;2023-07-20T04:15:01;10.63;;;8.02;;
10769;SDS011;5437;50.852;4.438;2023-07-20T04:17:29;9.85;;;8.05;;
10769;SDS011;5437;50.852;4.438;2023-07-20T04:19:55;11.00;;;8.50;;
10769;SDS011;5437;50.852;4.438;2023-07-20T04:22:21;13.13;;;8.48;;
10769;SDS011;5437;50.852;4.438;2023-07-20T04:24:47;10.98;;;8.55;;
10769;SDS011;5437;50.852;4.438;2023-07-20T04:27:13;11.98;;;8.55;;
10769;SDS011;5437;50.852;4.438;2023-07-20T04:29:39;9.52;;;7.75;;
10769;SDS011;5437;50.852;4.438;2023-07-20T04:32:06;11.18;;;7.93;;
10769;SDS011;5437;50.852;4.438;2023-07-20T04:34:32;13.90;;;8.40;;
10769;SDS011;5437;50.852;4.438;2023-07-20T04:37:04;11.57;;;8.25;;
10769;SDS011;5437;50.852;4.438;2023-07-20T04:39:31;13.75;;;9.23;;
10769;SDS011;5437;50.852;4.438;2023-07-20T04:41:57;11.10;;;8.75;;
10769;SDS011;5437;50.852;4.438;2023-07-20T04:44:23;9.05;;;8.07;;
10769;SDS011;5437;50.852;4.438;2023-07-20T04:46:49;12.40;;;8.60;;
10769;SDS011;5437;50.852;4.438;2023-07-20T04:49:15;12.05;;;9.45;;
10769;SDS011;5437;50.852;4.438;2023-07-20T04:51:41;12.93;;;8.38;;
10769;SDS011;5437;50.852;4.438;2023-07-20T04:54:07;10.57;;;8.90;;
10769;SDS011;5437;50.852;4.438;2023-07-20T04:56:33;13.73;;;8.95;;
10769;SDS011;5437;50.852;4.438;2023-07-20T04:59:00;14.05;;;9.35;;
10769;SDS011;5437;50.852;4.438;2023-07-20T05:01:26;11.60;;;9.45;;
10769;SDS011;5437;50.852;4.438;2023-07-20T05:03:52;10.95;;;8.35;;
10769;SDS011;5437;50.852;4.438;2023-07-20T05:06:18;11.90;;;8.77;;
10769;SDS011;5437;50.852;4.438;2023-07-20T05:08:45;11.32;;;9.07;;
10769;SDS011;5437;50.852;4.438;2023-07-20T05:11:11;10.85;;;8.55;;
10769;SDS011;5437;50.852;4.438;2023-07-20T05:13:37;13.27;;;9.10;;
10769;SDS011;5437;50.852;4.438;2023-07-20T05:16:03;12.13;;;8.85;;
10769;SDS011;5437;50.852;4.438;2023-07-20T05:18:29;13.15;;;8.82;;
10769;SDS011;5437;50.852;4.438;2023-07-20T05:20:56;10.60;;;8.50;;
10769;SDS011;5437;50.852;4.438;2023-07-20T05:23:22;11.40;;;8.35;;
10769;SDS011;5437;50.852;4.438;2023-07-20T05:25:54;12.05;;;8.60;;
10769;SDS011;5437;50.852;4.438;2023-07-20T05:28:21;11.38;;;8.32;;
10769;SDS011;5437;50.852;4.438;2023-07-20T05:30:47;12.02;;;8.73;;
10769;SDS011;5437;50.852;4.438;2023-07-20T05:33:14;12.02;;;8.00;;
10769;SDS011;5437;50.852;4.438;2023-07-20T05:35:40;9.63;;;8.50;;
10769;SDS011;5437;50.852;4.438;2023-07-20T05:38:06;10.63;;;8.63;;
10769;SDS011;5437;50.852;4.438;2023-07-20T05:40:32;13.15;;;8.95;;
10769;SDS011;5437;50.852;4.438;2023-07-20T05:42:58;11.18;;;8.23;;
10769;SDS011;5437;50.852;4.438;2023-07-20T05:45:25;10.98;;;8.00;;
10769;SDS011;5437;50.852;4.438;2023-07-20T05:47:51;11.15;;;8.30;;
10769;SDS011;5437;50.852;4.438;2023-07-20T05:50:18;10.55;;;7.53;;
10769;SDS011;5437;50.852;4.438;2023-07-20T05:52:44;10.30;;;7.68;;
10769;SDS011;5437;50.852;4.438;2023-07-20T05:55:10;9.40;;;7.65;;
10769;SDS011;5437;50.852;4.438;2023-07-20T05:57:36;10.88;;;7.97;;
10769;SDS011;5437;50.852;4.438;2023-07-20T06:00:07;11.00;;;8.15;;
10769;SDS011;5437;50.852;4.438;2023-07-20T06:02:37;8.13;;;6.55;;
10769;SDS011;5437;50.852;4.438;2023-07-20T06:05:04;7.72;;;6.50;;
10769;SDS011;5437;50.852;4.438;2023-07-20T06:07:30;6.72;;;5.63;;
10769;SDS011;5437;50.852;4.438;2023-07-20T06:09:56;7.78;;;6.40;;
10769;SDS011;5437;50.852;4.438;2023-07-20T06:12:24;6.75;;;6.05;;
10769;SDS011;5437;50.852;4.438;2023-07-20T06:14:55;7.45;;;5.70;;
10769;SDS011;5437;50.852;4.438;2023-07-20T06:17:21;6.63;;;5.57;;
10769;SDS011;5437;50.852;4.438;2023-07-20T06:19:47;6.47;;;5.22;;
10769;SDS011;5437;50.852;4.438;2023-07-20T06:22:13;6.10;;;5.10;;
10769;SDS011;5437;50.852;4.438;2023-07-20T06:24:40;6.60;;;5.72;;
10769;SDS011;5437;50.852;4.438;2023-07-20T06:27:06;5.78;;;5.10;;
10769;SDS011;5437;50.852;4.438;2023-07-20T06:29:32;5.50;;;4.90;;
10769;SDS011;5437;50.852;4.438;2023-07-20T06:31:58;5.38;;;4.20;;
10769;SDS011;5437;50.852;4.438;2023-07-20T06:34:24;5.57;;;5.07;;
10769;SDS011;5437;50.852;4.438;2023-07-20T06:36:50;5.80;;;5.20;;
